Saint Joseph, MO

10:50 PM CDT on September 01, 2014 (GMT -0500)
St. Joseph | Change Station
CLOSE
Current Station
Airport
Location: St. Joseph,
Elevation: 817 ft
Nearby Weather Stations

Elev 817 ft 39.77 °N, 94.91 °W | Updated 57 minutes ago

Clear
Clear
67 °F
Feels Like 67 °F
N
0
Wind Variable Wind from North

Today
High -- | Low -- °F
--% Chance of Precip.
Yesterday
High -- | Low -- °F
Precip. -- in
6:47 AM 7:50 PM
Waxing Crescent, 47% visible
Pressure 29.87 in
Visibility 10.0 miles
Clouds Clear
Dew Point 65 °F
Humidity 93%
Rainfall 0.26 in
Snow Depth Not available.
UV 0 out of 12
Pollen 3.90 out of 12
Air Quality Not available.
Flu Activity Not available.
METAR KSTJ 020253Z AUTO 00000KT 10SM CLR 19/18 A2988 RMK AO2 SLP113 T01940183 53007

More Conditions Fewer Conditions

Pressure 29.87 in
Visibility 10.0 miles
Clouds Clear
Dew Point 65 °F
Humidity 93%
Rainfall 0.26 in
Snow Depth Not available.
UV 0 out of 12
Pollen 3.90 out of 12
Air Quality Not available.
Flu Activity Not available.
METAR KSTJ 020253Z AUTO 00000KT 10SM CLR 19/18 A2988 RMK AO2 SLP113 T01940183 53007

More Conditions Fewer Conditions

10-Day Weather Forecast

Almanac

Astronomy

Sep. 01, 2014 Rise Set
Actual Time 6:47 AM CDT 7:50 PM CDT
Civil Twilight 6:19 AM CDT 8:18 PM CDT
Nautical Twilight 5:46 AM CDT 8:51 PM CDT
Astronomical Twilight 5:12 AM CDT 9:25 PM CDT
Moon 1:33 PM CDT (9/1) 11:53 PM CDT (9/1)
Length of Visible Light 13h 58m
Length of Day
13h 03m
Tomorrow will be 2m 31s shorter.
Waxing Crescent, 47% of the Moon is Illuminated
Today
Waxing Crescent
Sep 2
First Quarter
Sep 8
Full
Sep 15
Last Quarter
Sep 24
New

Today's Extremes

State Highs State Lows

Community

WunderPhotos

Upload Photos

1,749,557 photos uploaded!

WunderBlogs® & News

Nearby

Snow Depth

Station Depth Elevation
No new snow has been reported.

Earthquake Activity

City Distance Mag. Time & Date
No recent earthquake activity has been reported nearby.
Minimum magnitude displayed is 2.5.

Coastal Water Temperatures

Place Temperature
No Stations Reporting

Nearby Weather Stations